sensor_id;sensor_type;location;lat;lon;timestamp;pressure;altitude;pressure_sealevel;temperature;humidity
70968;BME280;58629;48.808;8.820;2023-02-18T00:02:03;98038.97;;;10.48;84.61
70968;BME280;58629;48.808;8.820;2023-02-18T00:04:29;98038.19;;;10.51;84.08
70968;BME280;58629;48.808;8.820;2023-02-18T00:06:54;98029.53;;;10.43;84.64
70968;BME280;58629;48.808;8.820;2023-02-18T00:09:19;98034.81;;;10.46;84.46
70968;BME280;58629;48.808;8.820;2023-02-18T00:11:45;98029.91;;;10.45;84.93
70968;BME280;58629;48.808;8.820;2023-02-18T00:14:12;98028.75;;;10.46;83.61
70968;BME280;58629;48.808;8.820;2023-02-18T00:16:38;98021.88;;;10.63;82.95
70968;BME280;58629;48.808;8.820;2023-02-18T00:19:05;98037.06;;;10.55;82.50
70968;BME280;58629;48.808;8.820;2023-02-18T00:21:32;98035.53;;;10.61;82.25
70968;BME280;58629;48.808;8.820;2023-02-18T00:23:58;98038.19;;;10.54;82.37
70968;BME280;58629;48.808;8.820;2023-02-18T00:26:24;98043.50;;;10.58;81.91
70968;BME280;58629;48.808;8.820;2023-02-18T00:28:49;98052.56;;;10.57;82.12
70968;BME280;58629;48.808;8.820;2023-02-18T00:31:27;98056.34;;;10.56;82.77
70968;BME280;58629;48.808;8.820;2023-02-18T00:33:53;98038.53;;;10.63;82.16
70968;BME280;58629;48.808;8.820;2023-02-18T00:36:20;98033.25;;;10.60;81.98
70968;BME280;58629;48.808;8.820;2023-02-18T00:38:51;98031.38;;;10.53;82.82
70968;BME280;58629;48.808;8.820;2023-02-18T00:41:17;98034.78;;;10.54;82.58
70968;BME280;58629;48.808;8.820;2023-02-18T00:43:43;98035.91;;;10.53;82.20
70968;BME280;58629;48.808;8.820;2023-02-18T00:46:09;98028.69;;;10.67;81.92
70968;BME280;58629;48.808;8.820;2023-02-18T00:48:34;98034.38;;;10.59;82.17
70968;BME280;58629;48.808;8.820;2023-02-18T00:51:01;98034.06;;;10.50;82.85
70968;BME280;58629;48.808;8.820;2023-02-18T00:53:27;98033.66;;;10.44;83.64
70968;BME280;58629;48.808;8.820;2023-02-18T00:55:53;98037.84;;;10.38;83.44
70968;BME280;58629;48.808;8.820;2023-02-18T00:58:18;98035.22;;;10.34;83.60
70968;BME280;58629;48.808;8.820;2023-02-18T01:00:44;98035.97;;;10.38;83.66
70968;BME280;58629;48.808;8.820;2023-02-18T01:03:09;98046.56;;;10.31;84.89
70968;BME280;58629;48.808;8.820;2023-02-18T01:05:36;98045.06;;;10.30;84.87
70968;BME280;58629;48.808;8.820;2023-02-18T01:08:02;98039.78;;;10.27;85.22
70968;BME280;58629;48.808;8.820;2023-02-18T01:10:28;98035.25;;;10.24;85.25
70968;BME280;58629;48.808;8.820;2023-02-18T01:12:53;98039.41;;;10.25;85.28
70968;BME280;58629;48.808;8.820;2023-02-18T01:15:18;98042.81;;;10.25;84.86
70968;BME280;58629;48.808;8.820;2023-02-18T01:17:44;98038.25;;;10.33;84.07
70968;BME280;58629;48.808;8.820;2023-02-18T01:20:10;98029.16;;;10.30;84.12
70968;BME280;58629;48.808;8.820;2023-02-18T01:22:36;98015.16;;;10.37;83.81
70968;BME280;58629;48.808;8.820;2023-02-18T01:25:02;98013.63;;;10.36;83.56
70968;BME280;58629;48.808;8.820;2023-02-18T01:27:28;98017.06;;;10.33;84.03
70968;BME280;58629;48.808;8.820;2023-02-18T01:29:53;98012.56;;;10.30;83.91
70968;BME280;58629;48.808;8.820;2023-02-18T01:32:19;98017.09;;;10.26;83.64
70968;BME280;58629;48.808;8.820;2023-02-18T01:34:44;98012.94;;;10.25;83.84
70968;BME280;58629;48.808;8.820;2023-02-18T01:37:11;98004.97;;;10.28;83.58
70968;BME280;58629;48.808;8.820;2023-02-18T01:39:37;97992.53;;;10.22;83.39
70968;BME280;58629;48.808;8.820;2023-02-18T01:42:02;98009.53;;;10.21;83.52
70968;BME280;58629;48.808;8.820;2023-02-18T01:44:27;98003.50;;;10.13;84.10
70968;BME280;58629;48.808;8.820;2023-02-18T01:46:53;98007.66;;;10.14;83.51
70968;BME280;58629;48.808;8.820;2023-02-18T01:49:23;97992.91;;;10.24;83.18
70968;BME280;58629;48.808;8.820;2023-02-18T01:51:53;97990.25;;;10.17;83.56
70968;BME280;58629;48.808;8.820;2023-02-18T01:54:28;98003.09;;;10.25;83.51
70968;BME280;58629;48.808;8.820;2023-02-18T01:56:58;97997.06;;;10.11;83.62
70968;BME280;58629;48.808;8.820;2023-02-18T01:59:30;97986.84;;;10.13;83.82
70968;BME280;58629;48.808;8.820;2023-02-18T02:01:57;97979.66;;;10.06;83.72
70968;BME280;58629;48.808;8.820;2023-02-18T02:04:22;97984.22;;;10.06;84.27
70968;BME280;58629;48.808;8.820;2023-02-18T02:06:48;97983.44;;;10.05;84.16
70968;BME280;58629;48.808;8.820;2023-02-18T02:09:15;97981.94;;;10.01;84.57
70968;BME280;58629;48.808;8.820;2023-02-18T02:11:58;97982.31;;;10.06;84.06
70968;BME280;58629;48.808;8.820;2023-02-18T02:14:53;97985.72;;;10.03;84.64
70968;BME280;58629;48.808;8.820;2023-02-18T02:37:17;97978.47;;;10.32;81.39
70968;BME280;58629;48.808;8.820;2023-02-18T02:42:45;97966.38;;;10.41;80.09
70968;BME280;58629;48.808;8.820;2023-02-18T02:48:12;97963.31;;;10.46;79.80
70968;BME280;58629;48.808;8.820;2023-02-18T02:50:53;97968.22;;;10.44;79.74
70968;BME280;58629;48.808;8.820;2023-02-18T02:53:26;97973.19;;;10.39;79.99
70968;BME280;58629;48.808;8.820;2023-02-18T02:55:52;97966.72;;;10.40;79.86
70968;BME280;58629;48.808;8.820;2023-02-18T02:58:20;97954.28;;;10.33;80.51
70968;BME280;58629;48.808;8.820;2023-02-18T03:11:52;97951.25;;;10.35;80.75
70968;BME280;58629;48.808;8.820;2023-02-18T03:14:31;97950.91;;;10.29;81.86
70968;BME280;58629;48.808;8.820;2023-02-18T03:17:02;97946.72;;;10.32;82.06
70968;BME280;58629;48.808;8.820;2023-02-18T03:19:41;97932.38;;;10.26;81.87
70968;BME280;58629;48.808;8.820;2023-02-18T03:22:22;97937.31;;;10.20;81.89
70968;BME280;58629;48.808;8.820;2023-02-18T03:24:50;97931.25;;;10.16;82.02
70968;BME280;58629;48.808;8.820;2023-02-18T03:27:27;97927.09;;;10.08;82.36
70968;BME280;58629;48.808;8.820;2023-02-18T03:29:58;97924.06;;;10.06;82.00
70968;BME280;58629;48.808;8.820;2023-02-18T03:32:26;97924.09;;;10.17;81.95
70968;BME280;58629;48.808;8.820;2023-02-18T03:34:59;97923.34;;;10.13;81.08
70968;BME280;58629;48.808;8.820;2023-02-18T03:37:26;97918.03;;;10.09;82.03
70968;BME280;58629;48.808;8.820;2023-02-18T03:39:55;97929.75;;;10.08;82.19
70968;BME280;58629;48.808;8.820;2023-02-18T03:42:27;97919.56;;;10.10;81.46
70968;BME280;58629;48.808;8.820;2023-02-18T03:44:53;97924.47;;;10.15;80.97
70968;BME280;58629;48.808;8.820;2023-02-18T03:47:18;97924.09;;;10.17;81.29
70968;BME280;58629;48.808;8.820;2023-02-18T03:49:43;97919.91;;;10.23;80.54
70968;BME280;58629;48.808;8.820;2023-02-18T03:52:09;97929.00;;;10.18;80.30
70968;BME280;58629;48.808;8.820;2023-02-18T03:54:35;97926.34;;;10.22;80.12
70968;BME280;58629;48.808;8.820;2023-02-18T03:57:00;97929.75;;;10.26;80.48
70968;BME280;58629;48.808;8.820;2023-02-18T03:59:26;97924.03;;;10.31;79.66
70968;BME280;58629;48.808;8.820;2023-02-18T04:01:51;97928.97;;;10.29;79.77
70968;BME280;58629;48.808;8.820;2023-02-18T04:04:16;97919.50;;;10.31;78.70
70968;BME280;58629;48.808;8.820;2023-02-18T04:06:41;97916.13;;;10.27;79.22
70968;BME280;58629;48.808;8.820;2023-02-18T04:09:07;97923.28;;;10.30;78.52
70968;BME280;58629;48.808;8.820;2023-02-18T04:11:35;97916.88;;;10.28;77.68
70968;BME280;58629;48.808;8.820;2023-02-18T04:14:00;97914.59;;;10.26;78.00
70968;BME280;58629;48.808;8.820;2023-02-18T04:16:26;97922.16;;;10.24;78.09
70968;BME280;58629;48.808;8.820;2023-02-18T04:18:51;97909.34;;;10.19;77.92
70968;BME280;58629;48.808;8.820;2023-02-18T04:21:16;97916.94;;;10.14;78.06
70968;BME280;58629;48.808;8.820;2023-02-18T04:23:41;97918.03;;;10.09;78.40
70968;BME280;58629;48.808;8.820;2023-02-18T04:26:06;97916.13;;;10.06;78.70
70968;BME280;58629;48.808;8.820;2023-02-18T04:28:32;97910.88;;;10.10;78.36
70968;BME280;58629;48.808;8.820;2023-02-18T04:30:57;97909.00;;;10.14;77.73
70968;BME280;58629;48.808;8.820;2023-02-18T04:33:22;97909.34;;;10.09;78.38
70968;BME280;58629;48.808;8.820;2023-02-18T04:35:48;97920.69;;;10.09;78.53
70968;BME280;58629;48.808;8.820;2023-02-18T04:38:13;97924.09;;;10.03;78.19
70968;BME280;58629;48.808;8.820;2023-02-18T04:40:38;97923.72;;;10.15;77.90
70968;BME280;58629;48.808;8.820;2023-02-18T04:43:04;97926.00;;;10.13;77.42
70968;BME280;58629;48.808;8.820;2023-02-18T04:45:29;97913.53;;;10.10;78.13
70968;BME280;58629;48.808;8.820;2023-02-18T04:47:54;97912.75;;;10.02;77.84
70968;BME280;58629;48.808;8.820;2023-02-18T04:50:20;97908.97;;;10.03;78.10
70968;BME280;58629;48.808;8.820;2023-02-18T04:52:46;97906.00;;;9.94;78.64
70968;BME280;58629;48.808;8.820;2023-02-18T04:55:11;97910.53;;;9.94;78.24
70968;BME280;58629;48.808;8.820;2023-02-18T04:57:37;97905.25;;;9.90;78.98
70968;BME280;58629;48.808;8.820;2023-02-18T05:00:04;97908.28;;;9.85;78.82
70968;BME280;58629;48.808;8.820;2023-02-18T05:02:31;97907.88;;;9.87;79.09
70968;BME280;58629;48.808;8.820;2023-02-18T05:04:56;97898.06;;;9.87;79.25
70968;BME280;58629;48.808;8.820;2023-02-18T05:07:22;97908.63;;;9.91;78.36
70968;BME280;58629;48.808;8.820;2023-02-18T05:09:47;97917.72;;;9.86;78.78
70968;BME280;58629;48.808;8.820;2023-02-18T05:12:12;97917.34;;;9.81;79.47
70968;BME280;58629;48.808;8.820;2023-02-18T05:14:37;97912.81;;;9.81;78.98
70968;BME280;58629;48.808;8.820;2023-02-18T05:17:03;97904.50;;;9.86;78.63
70968;BME280;58629;48.808;8.820;2023-02-18T05:19:28;97910.56;;;9.80;78.73
70968;BME280;58629;48.808;8.820;2023-02-18T05:21:53;97896.56;;;9.86;78.34
70968;BME280;58629;48.808;8.820;2023-02-18T05:24:19;97905.56;;;10.06;78.02
70968;BME280;58629;48.808;8.820;2023-02-18T05:26:44;97903.31;;;10.12;76.98
70968;BME280;58629;48.808;8.820;2023-02-18T05:29:09;97906.69;;;10.19;76.12
70968;BME280;58629;48.808;8.820;2023-02-18T05:31:34;97898.72;;;10.23;77.00
70968;BME280;58629;48.808;8.820;2023-02-18T05:34:00;97889.66;;;10.24;76.35
70968;BME280;58629;48.808;8.820;2023-02-18T05:36:25;97900.63;;;10.22;76.24
70968;BME280;58629;48.808;8.820;2023-02-18T05:38:50;97895.34;;;10.19;77.28
70968;BME280;58629;48.808;8.820;2023-02-18T05:41:15;97884.31;;;10.31;76.67
70968;BME280;58629;48.808;8.820;2023-02-18T05:43:41;97883.91;;;10.39;75.45
70968;BME280;58629;48.808;8.820;2023-02-18T05:46:25;97887.66;;;10.45;75.54
70968;BME280;58629;48.808;8.820;2023-02-18T05:48:50;97885.72;;;10.53;75.46
70968;BME280;58629;48.808;8.820;2023-02-18T05:51:15;97890.25;;;10.56;75.31
70968;BME280;58629;48.808;8.820;2023-02-18T05:53:40;97878.91;;;10.52;75.58
70968;BME280;58629;48.808;8.820;2023-02-18T05:56:06;97895.19;;;10.51;75.67
70968;BME280;58629;48.808;8.820;2023-02-18T05:58:31;97891.06;;;10.50;75.81
70968;BME280;58629;48.808;8.820;2023-02-18T06:00:57;97893.34;;;10.48;75.78
70968;BME280;58629;48.808;8.820;2023-02-18T06:03:22;97880.88;;;10.41;76.64
70968;BME280;58629;48.808;8.820;2023-02-18T06:05:51;97878.19;;;10.48;75.52
70968;BME280;58629;48.808;8.820;2023-02-18T06:08:16;97882.75;;;10.44;76.04
70968;BME280;58629;48.808;8.820;2023-02-18T06:10:44;97879.00;;;10.41;76.03
70968;BME280;58629;48.808;8.820;2023-02-18T06:13:09;97883.03;;;10.60;74.74
70968;BME280;58629;48.808;8.820;2023-02-18T06:15:34;97877.75;;;10.57;75.06
70968;BME280;58629;48.808;8.820;2023-02-18T06:17:59;97867.59;;;10.52;75.20
70968;BME280;58629;48.808;8.820;2023-02-18T06:20:25;97867.63;;;10.44;75.70
70968;BME280;58629;48.808;8.820;2023-02-18T06:22:50;97875.56;;;10.44;75.77
70968;BME280;58629;48.808;8.820;2023-02-18T06:25:15;97866.13;;;10.40;76.20
70968;BME280;58629;48.808;8.820;2023-02-18T06:27:41;97886.53;;;10.43;75.80
70968;BME280;58629;48.808;8.820;2023-02-18T06:30:06;97880.81;;;10.55;75.42
70968;BME280;58629;48.808;8.820;2023-02-18T06:32:32;97879.66;;;10.60;75.02
70968;BME280;58629;48.808;8.820;2023-02-18T06:34:57;97875.06;;;10.67;75.58
70968;BME280;58629;48.808;8.820;2023-02-18T06:37:23;97875.06;;;10.64;75.16
70968;BME280;58629;48.808;8.820;2023-02-18T06:39:48;97881.09;;;10.68;75.48
70968;BME280;58629;48.808;8.820;2023-02-18T06:42:13;97891.72;;;10.64;75.46
70968;BME280;58629;48.808;8.820;2023-02-18T06:44:39;97882.22;;;10.70;75.56
70968;BME280;58629;48.808;8.820;2023-02-18T06:47:04;97878.72;;;10.87;73.86
70968;BME280;58629;48.808;8.820;2023-02-18T06:49:29;97870.72;;;10.91;74.03
70968;BME280;58629;48.808;8.820;2023-02-18T06:51:54;97879.06;;;10.89;74.47
70968;BME280;58629;48.808;8.820;2023-02-18T06:54:20;97890.44;;;10.86;74.83
70968;BME280;58629;48.808;8.820;2023-02-18T06:56:45;97888.22;;;10.81;73.94
70968;BME280;58629;48.808;8.820;2023-02-18T06:59:10;97884.00;;;10.84;73.78
70968;BME280;58629;48.808;8.820;2023-02-18T07:01:36;97881.69;;;10.93;73.84
70968;BME280;58629;48.808;8.820;2023-02-18T07:04:01;97900.66;;;10.91;73.70
70968;BME280;58629;48.808;8.820;2023-02-18T07:06:26;97898.75;;;10.88;74.29
70968;BME280;58629;48.808;8.820;2023-02-18T07:08:52;97901.44;;;10.85;73.83
70968;BME280;58629;48.808;8.820;2023-02-18T07:11:17;97893.41;;;10.95;74.01
70968;BME280;58629;48.808;8.820;2023-02-18T07:13:42;97875.28;;;10.90;74.52
70968;BME280;58629;48.808;8.820;2023-02-18T07:16:08;97869.97;;;10.90;74.03
70968;BME280;58629;48.808;8.820;2023-02-18T07:18:33;97866.13;;;10.98;73.41
70968;BME280;58629;48.808;8.820;2023-02-18T07:20:58;97870.66;;;10.98;73.74
70968;BME280;58629;48.808;8.820;2023-02-18T07:23:24;97874.41;;;11.04;73.13
70968;BME280;58629;48.808;8.820;2023-02-18T07:25:49;97871.75;;;11.04;73.41
70968;BME280;58629;48.808;8.820;2023-02-18T07:28:14;97861.22;;;10.97;74.08
70968;BME280;58629;48.808;8.820;2023-02-18T07:30:40;97870.69;;;10.94;74.25
70968;BME280;58629;48.808;8.820;2023-02-18T07:33:05;97867.91;;;11.12;73.54
70968;BME280;58629;48.808;8.820;2023-02-18T07:35:30;97858.09;;;11.05;73.82
70968;BME280;58629;48.808;8.820;2023-02-18T07:37:56;97861.13;;;11.07;73.45
70968;BME280;58629;48.808;8.820;2023-02-18T07:40:22;97856.19;;;11.09;72.79
70968;BME280;58629;48.808;8.820;2023-02-18T07:42:47;97852.81;;;11.09;73.04
70968;BME280;58629;48.808;8.820;2023-02-18T07:45:13;97857.34;;;11.08;74.11
70968;BME280;58629;48.808;8.820;2023-02-18T07:47:39;97865.28;;;11.08;73.03
70968;BME280;58629;48.808;8.820;2023-02-18T07:50:06;97856.91;;;11.17;73.21
70968;BME280;58629;48.808;8.820;2023-02-18T07:52:32;97864.84;;;11.17;73.41
70968;BME280;58629;48.808;8.820;2023-02-18T07:54:57;97872.00;;;11.20;73.42
70968;BME280;58629;48.808;8.820;2023-02-18T07:57:22;97864.81;;;11.20;73.09
70968;BME280;58629;48.808;8.820;2023-02-18T07:59:47;97864.41;;;11.22;73.29
70968;BME280;58629;48.808;8.820;2023-02-18T08:02:18;97877.16;;;11.38;72.73
70968;BME280;58629;48.808;8.820;2023-02-18T08:04:44;97864.34;;;11.32;72.15
70968;BME280;58629;48.808;8.820;2023-02-18T08:07:15;97859.81;;;11.29;72.28
70968;BME280;58629;48.808;8.820;2023-02-18T08:09:40;97859.03;;;11.32;72.26
70968;BME280;58629;48.808;8.820;2023-02-18T08:12:07;97857.50;;;11.31;71.77
70968;BME280;58629;48.808;8.820;2023-02-18T08:14:32;97858.28;;;11.32;72.20
70968;BME280;58629;48.808;8.820;2023-02-18T08:16:57;97868.09;;;11.35;71.95
70968;BME280;58629;48.808;8.820;2023-02-18T08:19:22;97866.94;;;11.36;71.72
70968;BME280;58629;48.808;8.820;2023-02-18T08:21:48;97864.25;;;11.40;71.59
70968;BME280;58629;48.808;8.820;2023-02-18T08:24:13;97872.97;;;11.40;71.94
70968;BME280;58629;48.808;8.820;2023-02-18T08:26:38;97853.25;;;11.41;72.04
70968;BME280;58629;48.808;8.820;2023-02-18T08:29:04;97856.31;;;11.40;72.44
70968;BME280;58629;48.808;8.820;2023-02-18T08:31:30;97848.38;;;11.36;71.55
70968;BME280;58629;48.808;8.820;2023-02-18T08:33:56;97852.94;;;11.35;72.27
70968;BME280;58629;48.808;8.820;2023-02-18T08:36:22;97841.16;;;11.40;71.85
70968;BME280;58629;48.808;8.820;2023-02-18T08:38:48;97840.00;;;11.41;72.67
70968;BME280;58629;48.808;8.820;2023-02-18T08:41:13;97835.84;;;11.40;72.45
70968;BME280;58629;48.808;8.820;2023-02-18T08:43:40;97836.13;;;11.49;71.89
70968;BME280;58629;48.808;8.820;2023-02-18T08:46:05;97843.00;;;11.47;73.69
70968;BME280;58629;48.808;8.820;2023-02-18T08:48:31;97843.34;;;11.49;73.19
70968;BME280;58629;48.808;8.820;2023-02-18T08:50:57;97848.28;;;11.47;73.26
70968;BME280;58629;48.808;8.820;2023-02-18T08:53:22;97844.84;;;11.50;73.53
70968;BME280;58629;48.808;8.820;2023-02-18T08:55:48;97845.19;;;11.52;73.15
70968;BME280;58629;48.808;8.820;2023-02-18T08:58:13;97836.84;;;11.53;72.54
70968;BME280;58629;48.808;8.820;2023-02-18T09:00:40;97828.03;;;11.63;72.78
70968;BME280;58629;48.808;8.820;2023-02-18T09:03:06;97825.41;;;11.60;73.64
70968;BME280;58629;48.808;8.820;2023-02-18T09:05:32;97829.94;;;11.66;72.64
70968;BME280;58629;48.808;8.820;2023-02-18T09:07:57;97831.78;;;11.69;72.53
70968;BME280;58629;48.808;8.820;2023-02-18T09:10:22;97828.31;;;11.76;72.57
70968;BME280;58629;48.808;8.820;2023-02-18T09:12:48;97817.53;;;11.90;72.65
70968;BME280;58629;48.808;8.820;2023-02-18T09:15:13;97817.38;;;12.00;72.07
70968;BME280;58629;48.808;8.820;2023-02-18T09:17:38;97819.31;;;12.00;72.20
70968;BME280;58629;48.808;8.820;2023-02-18T09:20:04;97814.28;;;12.05;71.69
70968;BME280;58629;48.808;8.820;2023-02-18T09:22:30;97813.41;;;12.15;70.60
70968;BME280;58629;48.808;8.820;2023-02-18T09:24:57;97810.75;;;12.15;69.99
70968;BME280;58629;48.808;8.820;2023-02-18T09:27:23;97800.03;;;12.23;70.48
70968;BME280;58629;48.808;8.820;2023-02-18T09:29:48;97807.63;;;12.20;70.55
70968;BME280;58629;48.808;8.820;2023-02-18T09:32:15;97796.66;;;12.22;68.80
70968;BME280;58629;48.808;8.820;2023-02-18T09:34:42;97812.56;;;12.22;69.13
70968;BME280;58629;48.808;8.820;2023-02-18T09:37:07;97800.84;;;12.19;69.34
70968;BME280;58629;48.808;8.820;2023-02-18T09:39:32;97806.34;;;12.32;69.53
70968;BME280;58629;48.808;8.820;2023-02-18T09:42:00;97814.63;;;12.38;70.00
70968;BME280;58629;48.808;8.820;2023-02-18T09:47:01;97826.41;;;12.63;67.94
70968;BME280;58629;48.808;8.820;2023-02-18T09:49:30;97826.06;;;12.61;68.20
70968;BME280;58629;48.808;8.820;2023-02-18T09:52:06;97809.34;;;12.61;67.63
70968;BME280;58629;48.808;8.820;2023-02-18T09:54:35;97827.19;;;12.60;68.08
70968;BME280;58629;48.808;8.820;2023-02-18T09:57:01;97824.59;;;12.57;67.53
70968;BME280;58629;48.808;8.820;2023-02-18T09:59:28;97821.53;;;12.58;67.54
70968;BME280;58629;48.808;8.820;2023-02-18T10:01:54;97819.94;;;12.38;69.02
70968;BME280;58629;48.808;8.820;2023-02-18T10:04:26;97815.69;;;12.44;68.73
70968;BME280;58629;48.808;8.820;2023-02-18T10:06:55;97814.44;;;12.52;66.84
70968;BME280;58629;48.808;8.820;2023-02-18T10:09:24;97805.63;;;12.32;68.15
70968;BME280;58629;48.808;8.820;2023-02-18T10:11:59;97801.44;;;12.31;69.00
70968;BME280;58629;48.808;8.820;2023-02-18T10:14:27;97802.59;;;12.30;69.21
70968;BME280;58629;48.808;8.820;2023-02-18T10:16:54;97803.53;;;12.43;68.45
70968;BME280;58629;48.808;8.820;2023-02-18T10:19:35;97807.50;;;12.58;67.75
70968;BME280;58629;48.808;8.820;2023-02-18T10:22:04;97810.41;;;12.67;66.92
70968;BME280;58629;48.808;8.820;2023-02-18T10:24:32;97809.22;;;12.71;68.17
70968;BME280;58629;48.808;8.820;2023-02-18T10:26:59;97825.66;;;12.63;66.83
70968;BME280;58629;48.808;8.820;2023-02-18T10:29:25;97816.34;;;12.74;66.92
70968;BME280;58629;48.808;8.820;2023-02-18T10:31:55;97826.22;;;12.74;67.90
70968;BME280;58629;48.808;8.820;2023-02-18T10:45:25;97842.13;;;12.51;67.64
70968;BME280;58629;48.808;8.820;2023-02-18T10:50:41;97825.25;;;12.64;66.47
70968;BME280;58629;48.808;8.820;2023-02-18T10:53:13;97813.31;;;12.49;67.52
70968;BME280;58629;48.808;8.820;2023-02-18T10:55:43;97816.06;;;12.42;67.07
70968;BME280;58629;48.808;8.820;2023-02-18T10:58:32;97833.47;;;12.47;67.65
70968;BME280;58629;48.808;8.820;2023-02-18T11:01:00;97813.31;;;12.49;67.62
70968;BME280;58629;48.808;8.820;2023-02-18T11:03:44;97813.63;;;12.55;67.44
70968;BME280;58629;48.808;8.820;2023-02-18T11:06:37;97797.81;;;12.44;67.12
70968;BME280;58629;48.808;8.820;2023-02-18T11:09:04;97801.16;;;12.52;66.65
70968;BME280;58629;48.808;8.820;2023-02-18T11:11:33;97796.22;;;12.50;65.98
70968;BME280;58629;48.808;8.820;2023-02-18T11:14:03;97813.56;;;12.58;65.92
70968;BME280;58629;48.808;8.820;2023-02-18T11:16:38;97795.56;;;12.92;64.25
70968;BME280;58629;48.808;8.820;2023-02-18T11:19:03;97789.75;;;13.01;64.06
70968;BME280;58629;48.808;8.820;2023-02-18T11:21:36;97791.31;;;12.75;65.33
70968;BME280;58629;48.808;8.820;2023-02-18T11:24:09;97789.69;;;12.81;65.63
70968;BME280;58629;48.808;8.820;2023-02-18T11:26:35;97777.88;;;12.82;64.74
70968;BME280;58629;48.808;8.820;2023-02-18T11:29:23;97785.09;;;12.82;64.84
70968;BME280;58629;48.808;8.820;2023-02-18T11:31:52;97778.22;;;12.84;64.66
70968;BME280;58629;48.808;8.820;2023-02-18T11:34:21;97775.03;;;12.70;65.84
70968;BME280;58629;48.808;8.820;2023-02-18T11:36:48;97767.19;;;12.63;66.61
70968;BME280;58629;48.808;8.820;2023-02-18T11:39:22;97764.00;;;12.48;66.33
70968;BME280;58629;48.808;8.820;2023-02-18T11:41:56;97752.41;;;12.62;65.24
70968;BME280;58629;48.808;8.820;2023-02-18T11:46:59;97753.56;;;12.61;65.95
70968;BME280;58629;48.808;8.820;2023-02-18T11:49:25;97754.81;;;12.53;65.86
70968;BME280;58629;48.808;8.820;2023-02-18T11:51:51;97771.66;;;12.69;65.96
70968;BME280;58629;48.808;8.820;2023-02-18T11:54:34;97759.75;;;12.77;64.96
70968;BME280;58629;48.808;8.820;2023-02-18T11:57:06;97747.25;;;12.74;64.45
70968;BME280;58629;48.808;8.820;2023-02-18T11:59:37;97756.75;;;12.75;64.93
70968;BME280;58629;48.808;8.820;2023-02-18T12:04:51;97762.28;;;12.61;66.15
70968;BME280;58629;48.808;8.820;2023-02-18T12:07:26;97749.69;;;12.65;65.58
70968;BME280;58629;48.808;8.820;2023-02-18T12:09:59;97757.78;;;12.58;66.53
70968;BME280;58629;48.808;8.820;2023-02-18T12:12:29;97760.63;;;12.71;66.06
70968;BME280;58629;48.808;8.820;2023-02-18T12:14:56;97756.28;;;12.57;65.95
70968;BME280;58629;48.808;8.820;2023-02-18T12:17:56;97747.03;;;12.65;66.25
70968;BME280;58629;48.808;8.820;2023-02-18T12:34:52;97758.78;;;12.14;68.62
70968;BME280;58629;48.808;8.820;2023-02-18T12:37:48;97735.56;;;12.22;67.91
70968;BME280;58629;48.808;8.820;2023-02-18T12:40:36;97736.72;;;12.21;68.36
70968;BME280;58629;48.808;8.820;2023-02-18T12:46:00;97738.31;;;12.15;67.77
70968;BME280;58629;48.808;8.820;2023-02-18T12:48:51;97747.88;;;12.09;68.79
70968;BME280;58629;48.808;8.820;2023-02-18T12:59:31;97744.47;;;12.08;68.55
70968;BME280;58629;48.808;8.820;2023-02-18T13:04:49;97715.88;;;12.19;68.99
70968;BME280;58629;48.808;8.820;2023-02-18T13:15:32;97725.13;;;12.35;67.29
70968;BME280;58629;48.808;8.820;2023-02-18T13:18:02;97725.25;;;12.28;67.37
70968;BME280;58629;48.808;8.820;2023-02-18T13:20:37;97728.16;;;12.10;68.94
70968;BME280;58629;48.808;8.820;2023-02-18T13:23:04;97715.94;;;12.16;68.60
70968;BME280;58629;48.808;8.820;2023-02-18T13:25:35;97720.72;;;12.25;69.01
70968;BME280;58629;48.808;8.820;2023-02-18T13:33:50;97710.94;;;12.45;67.17
70968;BME280;58629;48.808;8.820;2023-02-18T13:39:08;97706.00;;;12.66;66.33
70968;BME280;58629;48.808;8.820;2023-02-18T13:41:43;97699.84;;;12.73;66.35
70968;BME280;58629;48.808;8.820;2023-02-18T13:46:56;97698.22;;;12.56;66.74
70968;BME280;58629;48.808;8.820;2023-02-18T13:49:30;97695.91;;;12.58;67.60
70968;BME280;58629;48.808;8.820;2023-02-18T13:51:57;97698.41;;;12.45;67.50
70968;BME280;58629;48.808;8.820;2023-02-18T13:54:29;97699.84;;;12.50;67.32
70968;BME280;58629;48.808;8.820;2023-02-18T13:57:05;97690.44;;;12.45;67.90
70968;BME280;58629;48.808;8.820;2023-02-18T13:59:39;97685.13;;;12.45;68.01
70968;BME280;58629;48.808;8.820;2023-02-18T14:09:43;97679.69;;;12.52;66.84
70968;BME280;58629;48.808;8.820;2023-02-18T14:12:38;97677.75;;;12.76;66.63
70968;BME280;58629;48.808;8.820;2023-02-18T14:17:48;97658.78;;;12.54;68.63
70968;BME280;58629;48.808;8.820;2023-02-18T14:22:47;97659.56;;;12.74;69.13
70968;BME280;58629;48.808;8.820;2023-02-18T14:27:39;97661.88;;;12.72;67.56
70968;BME280;58629;48.808;8.820;2023-02-18T14:32:46;97656.47;;;12.79;67.89
70968;BME280;58629;48.808;8.820;2023-02-18T14:41:14;97662.34;;;12.44;68.86
70968;BME280;58629;48.808;8.820;2023-02-18T14:46:34;97653.81;;;12.10;69.40
70968;BME280;58629;48.808;8.820;2023-02-18T14:49:42;97671.75;;;12.02;70.24
70968;BME280;58629;48.808;8.820;2023-02-18T14:52:11;97671.56;;;11.90;71.67
70968;BME280;58629;48.808;8.820;2023-02-18T14:54:40;97677.22;;;11.92;71.69
70968;BME280;58629;48.808;8.820;2023-02-18T14:57:10;97676.41;;;11.95;72.04
70968;BME280;58629;48.808;8.820;2023-02-18T14:59:42;97673.47;;;11.89;72.69
70968;BME280;58629;48.808;8.820;2023-02-18T15:02:18;97677.78;;;11.80;72.58
70968;BME280;58629;48.808;8.820;2023-02-18T15:04:44;97673.47;;;11.89;72.46
70968;BME280;58629;48.808;8.820;2023-02-18T15:07:10;97678.00;;;11.89;72.00
70968;BME280;58629;48.808;8.820;2023-02-18T15:09:44;97673.25;;;12.03;72.03
70968;BME280;58629;48.808;8.820;2023-02-18T15:12:12;97678.00;;;11.89;73.03
70968;BME280;58629;48.808;8.820;2023-02-18T15:14:41;97683.38;;;11.85;73.03
70968;BME280;58629;48.808;8.820;2023-02-18T15:17:13;97676.16;;;11.86;73.24
70968;BME280;58629;48.808;8.820;2023-02-18T15:19:43;97678.56;;;11.77;73.64